createdAt,value
2023-03-29T00:02:20.203Z,95388.72
2023-03-29T00:04:47.764Z,95383.66
2023-03-29T00:07:14.946Z,95398.53
2023-03-29T00:09:45.101Z,95384.56
2023-03-29T00:12:15.611Z,95392.97
2023-03-29T00:14:43.086Z,95402.53
2023-03-29T00:17:10.524Z,95401.38
2023-03-29T00:19:38.075Z,95394.78
2023-03-29T00:22:15.192Z,95401.16
2023-03-29T00:27:29.863Z,95375.00
2023-03-29T00:30:09.904Z,95388.13
2023-03-29T00:32:42.133Z,95406.47
2023-03-29T00:35:15.380Z,95394.41
2023-03-29T00:38:08.287Z,95411.84
2023-03-29T00:44:40.334Z,95409.97
2023-03-29T00:47:20.422Z,95410.69
2023-03-29T00:50:12.695Z,95412.78
2023-03-29T00:52:51.954Z,95393.50
2023-03-29T00:56:02.025Z,95391.13
2023-03-29T00:59:18.956Z,95414.00
2023-03-29T01:02:02.362Z,95399.28
2023-03-29T01:04:51.459Z,95404.50
2023-03-29T01:07:35.642Z,95395.66
2023-03-29T01:10:21.135Z,95403.28
2023-03-29T01:12:56.742Z,95392.72
2023-03-29T01:15:31.203Z,95400.94
2023-03-29T01:18:02.374Z,95402.66
2023-03-29T01:20:39.589Z,95384.56
2023-03-29T01:23:30.856Z,95398.66
2023-03-29T01:26:15.145Z,95390.22
2023-03-29T01:29:08.112Z,95391.50
2023-03-29T01:31:50.651Z,95378.25
2023-03-29T01:34:53.351Z,95388.41
2023-03-29T01:37:28.017Z,95394.66
2023-03-29T01:39:55.265Z,95386.00
2023-03-29T01:42:58.070Z,95411.03
2023-03-29T01:45:28.968Z,95411.50
2023-03-29T01:48:07.580Z,95398.09
2023-03-29T01:50:42.228Z,95414.47
2023-03-29T01:53:37.442Z,95412.34
2023-03-29T01:56:29.389Z,95402.69
2023-03-29T01:59:07.367Z,95396.78
2023-03-29T02:01:49.689Z,95407.91
2023-03-29T02:04:31.726Z,95405.94
2023-03-29T02:07:01.748Z,95410.53
2023-03-29T02:09:30.922Z,95401.72
2023-03-29T02:12:01.228Z,95397.44
2023-03-29T02:14:32.990Z,95407.72
2023-03-29T02:17:20.557Z,95401.38
2023-03-29T02:19:54.018Z,95389.28
2023-03-29T02:22:33.624Z,95400.56
2023-03-29T02:25:04.905Z,95397.09
2023-03-29T02:27:32.212Z,95415.09
2023-03-29T02:29:59.811Z,95404.59
2023-03-29T02:32:36.508Z,95413.78
2023-03-29T02:35:14.531Z,95408.34
2023-03-29T02:37:51.971Z,95403.63
2023-03-29T02:40:21.482Z,95406.97
2023-03-29T02:43:00.080Z,95395.03
2023-03-29T02:45:33.333Z,95414.78
2023-03-29T02:48:22.964Z,95416.72
2023-03-29T02:54:15.617Z,95421.34
2023-03-29T02:56:45.321Z,95418.97
2023-03-29T02:59:14.454Z,95417.19
2023-03-29T03:01:45.265Z,95416.59
2023-03-29T03:04:15.496Z,95411.44
2023-03-29T03:06:43.039Z,95423.41
2023-03-29T03:09:10.991Z,95412.53
2023-03-29T03:11:41.374Z,95424.91
2023-03-29T03:14:09.467Z,95422.66
2023-03-29T03:16:37.460Z,95423.88
2023-03-29T03:19:05.438Z,95427.38
2023-03-29T03:21:33.718Z,95411.28
2023-03-29T03:24:00.964Z,95428.78
2023-03-29T03:26:30.331Z,95430.88
2023-03-29T03:28:58.423Z,95433.78
2023-03-29T03:31:44.950Z,95436.09
2023-03-29T03:34:35.145Z,95432.13
2023-03-29T03:37:03.191Z,95431.31
2023-03-29T03:39:33.718Z,95436.13
2023-03-29T03:42:07.845Z,95440.44
2023-03-29T03:44:39.605Z,95430.16
2023-03-29T03:47:20.535Z,95435.81
2023-03-29T03:49:47.784Z,95441.34
2023-03-29T03:52:18.531Z,95432.25
2023-03-29T03:54:48.280Z,95441.16
2023-03-29T03:57:40.004Z,95438.84
2023-03-29T04:00:25.170Z,95443.75
2023-03-29T04:03:11.940Z,95439.69
2023-03-29T04:05:43.940Z,95423.88
2023-03-29T04:08:17.952Z,95443.94
2023-03-29T04:11:19.989Z,95443.50
2023-03-29T04:13:51.158Z,95436.59
2023-03-29T04:19:49.754Z,95437.44
2023-03-29T04:22:42.819Z,95444.47
2023-03-29T04:25:40.837Z,95417.50
2023-03-29T04:28:38.403Z,95433.81
2023-03-29T04:31:15.123Z,95449.09
2023-03-29T04:34:02.957Z,95440.31
2023-03-29T04:36:31.116Z,95444.16
2023-03-29T04:39:01.876Z,95457.31
2023-03-29T04:41:30.565Z,95450.50
2023-03-29T04:44:09.673Z,95449.31
2023-03-29T04:46:38.997Z,95457.94
2023-03-29T04:49:06.898Z,95445.59
2023-03-29T04:51:38.150Z,95461.22
2023-03-29T04:54:06.046Z,95455.06
2023-03-29T04:56:47.422Z,95459.28
2023-03-29T04:59:29.039Z,95449.44
2023-03-29T05:01:56.779Z,95449.38
2023-03-29T05:04:24.877Z,95461.69
2023-03-29T05:07:04.713Z,95449.50
2023-03-29T05:09:34.327Z,95451.28
2023-03-29T05:12:04.070Z,95461.94
2023-03-29T05:14:40.430Z,95451.91
2023-03-29T05:17:08.309Z,95446.81
2023-03-29T05:19:37.769Z,95452.81
2023-03-29T05:22:05.424Z,95454.41
2023-03-29T05:24:32.842Z,95452.72
2023-03-29T05:27:06.223Z,95463.38
2023-03-29T05:29:36.853Z,95451.47
2023-03-29T05:32:38.378Z,95459.25
2023-03-29T05:35:08.403Z,95450.81
2023-03-29T05:37:36.076Z,95456.38
2023-03-29T05:40:09.289Z,95451.00
2023-03-29T05:42:54.664Z,95463.94
2023-03-29T05:45:25.771Z,95472.44
2023-03-29T05:47:53.719Z,95471.97
2023-03-29T05:50:21.093Z,95453.16
2023-03-29T05:52:50.275Z,95454.66
2023-03-29T05:55:18.691Z,95455.59
2023-03-29T05:58:14.198Z,95454.94
2023-03-29T06:00:43.102Z,95458.34
2023-03-29T06:03:36.952Z,95447.03
2023-03-29T06:06:10.415Z,95455.97
2023-03-29T06:08:38.469Z,95451.28
2023-03-29T06:11:30.722Z,95457.97
2023-03-29T06:14:10.566Z,95452.78
2023-03-29T06:16:47.276Z,95448.44
2023-03-29T06:19:16.281Z,95435.53
2023-03-29T06:21:46.489Z,95445.63
2023-03-29T06:24:19.349Z,95438.81
2023-03-29T06:26:53.923Z,95431.56
2023-03-29T06:29:22.452Z,95441.69
2023-03-29T06:31:51.133Z,95439.47
2023-03-29T06:34:38.663Z,95445.72
2023-03-29T06:37:23.877Z,95447.75
2023-03-29T06:40:01.272Z,95440.16
2023-03-29T06:42:35.887Z,95452.72
2023-03-29T06:45:24.335Z,95451.81
2023-03-29T06:47:53.617Z,95456.34
2023-03-29T06:50:22.570Z,95466.22
2023-03-29T06:53:09.002Z,95457.22
2023-03-29T06:56:06.655Z,95462.31
2023-03-29T06:58:45.476Z,95445.63
2023-03-29T07:01:29.271Z,95461.09
2023-03-29T07:04:09.141Z,95459.41
2023-03-29T07:07:03.626Z,95450.69
2023-03-29T07:09:33.667Z,95467.19
2023-03-29T07:12:19.062Z,95467.06
2023-03-29T07:14:46.858Z,95456.25
2023-03-29T07:17:23.719Z,95463.38
2023-03-29T07:19:53.747Z,95471.47
2023-03-29T07:22:51.578Z,95463.69
2023-03-29T07:25:23.781Z,95471.19
2023-03-29T07:27:54.777Z,95462.81
2023-03-29T07:30:25.444Z,95476.97
2023-03-29T07:32:56.277Z,95476.75
2023-03-29T07:35:48.060Z,95483.50
2023-03-29T07:38:16.096Z,95472.25
2023-03-29T07:40:48.827Z,95463.41
2023-03-29T07:43:43.178Z,95479.78
2023-03-29T07:46:12.107Z,95476.53
2023-03-29T07:48:40.373Z,95470.97
2023-03-29T07:51:10.341Z,95463.25
2023-03-29T08:04:32.003Z,95463.25
2023-03-29T08:07:18.829Z,95455.38
2023-03-29T08:10:04.501Z,95457.00
2023-03-29T08:13:07.456Z,95440.94
2023-03-29T08:16:07.174Z,95446.88
2023-03-29T08:18:39.687Z,95438.34
2023-03-29T08:21:07.504Z,95435.78
2023-03-29T08:23:35.125Z,95434.34
2023-03-29T08:26:09.506Z,95440.31
2023-03-29T08:28:39.356Z,95424.94
2023-03-29T08:31:10.059Z,95408.66
2023-03-29T08:33:42.641Z,95420.97
2023-03-29T08:36:30.434Z,95423.19
2023-03-29T08:39:03.588Z,95415.19
2023-03-29T08:41:58.002Z,95410.06
2023-03-29T08:44:26.783Z,95421.69
2023-03-29T08:47:36.396Z,95416.06
2023-03-29T08:50:04.619Z,95414.00
2023-03-29T08:52:54.558Z,95411.97
2023-03-29T08:55:51.926Z,95417.31
2023-03-29T08:58:43.634Z,95405.19
2023-03-29T09:01:11.784Z,95396.75
2023-03-29T09:04:10.062Z,95399.69
2023-03-29T09:06:55.809Z,95402.84
2023-03-29T09:09:36.581Z,95386.31
2023-03-29T09:12:12.369Z,95393.50
2023-03-29T09:14:50.031Z,95387.97
2023-03-29T09:17:25.227Z,95392.38
2023-03-29T09:19:59.228Z,95390.22
2023-03-29T09:22:40.089Z,95381.84
2023-03-29T09:25:21.546Z,95385.41
2023-03-29T09:28:15.575Z,95379.84
2023-03-29T09:31:08.079Z,95376.06
2023-03-29T09:33:47.167Z,95389.47
2023-03-29T09:36:18.210Z,95387.59
2023-03-29T09:38:51.190Z,95390.00
2023-03-29T09:41:45.712Z,95380.81
2023-03-29T09:44:30.329Z,95373.31
2023-03-29T09:47:11.849Z,95376.53
2023-03-29T09:49:45.271Z,95376.66
2023-03-29T09:52:16.893Z,95370.03
2023-03-29T09:54:56.400Z,95377.53
2023-03-29T09:57:53.017Z,95366.50
2023-03-29T10:00:21.708Z,95376.97
2023-03-29T10:02:53.943Z,95373.16
2023-03-29T10:05:32.777Z,95368.53
2023-03-29T10:08:01.742Z,95365.16
2023-03-29T10:10:33.603Z,95354.47
2023-03-29T10:13:13.546Z,95356.81
2023-03-29T10:15:41.092Z,95361.66
2023-03-29T10:18:14.252Z,95358.81
2023-03-29T10:20:41.834Z,95353.91
2023-03-29T10:23:16.586Z,95355.84
2023-03-29T10:25:44.699Z,95355.63
2023-03-29T10:28:16.518Z,95358.03
2023-03-29T10:30:48.968Z,95355.44
2023-03-29T10:33:19.692Z,95364.22
2023-03-29T10:35:48.807Z,95357.63
2023-03-29T10:38:23.252Z,95364.59
2023-03-29T10:40:53.396Z,95346.41
2023-03-29T10:43:29.796Z,95362.38
2023-03-29T10:46:11.833Z,95354.88
2023-03-29T10:48:40.675Z,95349.38
2023-03-29T10:51:09.167Z,95350.00
2023-03-29T10:53:46.799Z,95347.44
2023-03-29T10:56:21.402Z,95350.22
2023-03-29T10:59:00.702Z,95349.44
2023-03-29T11:01:51.900Z,95337.53
2023-03-29T11:04:28.745Z,95347.59
2023-03-29T11:07:16.796Z,95336.34
2023-03-29T11:09:59.421Z,95321.25
2023-03-29T11:12:35.234Z,95327.34
2023-03-29T11:15:29.564Z,95341.94
2023-03-29T11:18:06.234Z,95335.09
2023-03-29T11:20:55.025Z,95332.41
2023-03-29T11:23:56.174Z,95315.47
2023-03-29T11:27:42.102Z,95323.56
2023-03-29T11:30:46.275Z,95319.94
2023-03-29T11:33:31.430Z,95306.31
2023-03-29T11:36:25.672Z,95318.78
2023-03-29T11:39:12.183Z,95305.59
2023-03-29T11:41:45.142Z,95313.66
2023-03-29T11:44:27.512Z,95286.41
2023-03-29T11:47:19.095Z,95294.81
2023-03-29T11:49:57.807Z,95302.16
2023-03-29T11:52:34.310Z,95307.09
2023-03-29T11:55:07.516Z,95301.06
2023-03-29T11:57:40.182Z,95305.72
2023-03-29T12:00:12.857Z,95303.41
2023-03-29T12:02:48.614Z,95302.31
2023-03-29T12:05:36.222Z,95297.69
2023-03-29T12:08:07.581Z,95294.88
2023-03-29T12:10:48.311Z,95296.00
2023-03-29T12:13:22.844Z,95291.63
2023-03-29T12:15:58.915Z,95294.44
2023-03-29T12:18:43.326Z,95285.81
2023-03-29T12:21:23.779Z,95276.78
2023-03-29T12:23:53.303Z,95284.75
2023-03-29T12:26:34.290Z,95293.09
2023-03-29T12:29:20.211Z,95270.38
2023-03-29T12:32:06.516Z,95267.28
2023-03-29T12:35:06.830Z,95263.16
2023-03-29T12:38:19.435Z,95264.69
2023-03-29T12:41:26.286Z,95263.25
2023-03-29T12:44:15.484Z,95256.31
2023-03-29T12:46:59.529Z,95261.97
2023-03-29T12:49:34.265Z,95254.38
2023-03-29T12:52:07.389Z,95253.75
2023-03-29T12:54:34.794Z,95245.72
2023-03-29T12:57:21.496Z,95241.13
2023-03-29T12:59:49.869Z,95254.66
2023-03-29T13:02:18.221Z,95251.34
2023-03-29T13:05:01.538Z,95251.94
2023-03-29T13:07:33.768Z,95251.47
2023-03-29T13:10:05.476Z,95246.94
2023-03-29T13:12:43.563Z,95251.72
2023-03-29T13:15:19.737Z,95246.69
2023-03-29T13:17:59.657Z,95245.38
2023-03-29T13:20:39.592Z,95244.97
2023-03-29T13:23:46.066Z,95239.53
2023-03-29T13:26:57.768Z,95235.28
2023-03-29T13:29:49.505Z,95229.19
2023-03-29T13:32:28.736Z,95230.00
2023-03-29T13:35:08.159Z,95225.25
2023-03-29T13:38:18.273Z,95227.97
2023-03-29T13:40:58.060Z,95221.53
2023-03-29T13:43:52.084Z,95219.63
2023-03-29T13:46:25.683Z,95215.25
2023-03-29T13:49:14.528Z,95215.22
2023-03-29T13:52:00.368Z,95209.13
2023-03-29T13:54:36.763Z,95204.22
2023-03-29T13:57:23.849Z,95200.28
2023-03-29T14:00:12.151Z,95207.28
2023-03-29T14:02:53.951Z,95199.78
2023-03-29T14:05:26.402Z,95185.09
2023-03-29T14:07:55.019Z,95188.19
2023-03-29T14:10:40.048Z,95195.00
2023-03-29T14:13:12.869Z,95185.59
2023-03-29T14:15:47.898Z,95188.47
2023-03-29T14:18:19.289Z,95182.78
2023-03-29T14:20:49.350Z,95183.19
2023-03-29T14:23:22.821Z,95173.00
2023-03-29T14:25:50.667Z,95170.91
2023-03-29T14:28:27.280Z,95175.81
2023-03-29T14:30:56.362Z,95170.38
2023-03-29T14:33:34.574Z,95169.09
2023-03-29T14:36:06.829Z,95166.47
2023-03-29T14:38:37.021Z,95181.41
2023-03-29T14:41:04.526Z,95169.94
2023-03-29T14:43:32.455Z,95177.72
2023-03-29T14:46:05.305Z,95175.28
2023-03-29T14:48:34.311Z,95179.59
2023-03-29T14:51:02.108Z,95179.16
2023-03-29T14:53:32.724Z,95186.16
2023-03-29T14:56:02.392Z,95183.59
2023-03-29T14:58:35.602Z,95186.69
2023-03-29T15:01:19.110Z,95185.22
2023-03-29T15:04:04.933Z,95174.97
2023-03-29T15:06:38.097Z,95177.84
2023-03-29T15:09:06.925Z,95187.34
2023-03-29T15:11:36.111Z,95172.09
2023-03-29T15:14:09.454Z,95161.75
2023-03-29T15:16:43.921Z,95178.13
2023-03-29T15:19:18.572Z,95161.16
2023-03-29T15:21:49.221Z,95176.66
2023-03-29T15:24:34.347Z,95163.06
2023-03-29T15:27:19.818Z,95168.44
2023-03-29T15:29:49.102Z,95174.50
2023-03-29T15:32:25.264Z,95160.97
2023-03-29T15:35:05.397Z,95162.19
2023-03-29T15:37:33.067Z,95155.94
2023-03-29T15:40:05.783Z,95151.81
2023-03-29T15:42:34.758Z,95156.59
2023-03-29T15:45:05.139Z,95152.34
2023-03-29T15:47:32.681Z,95147.00
2023-03-29T15:50:00.226Z,95143.41
2023-03-29T15:52:28.217Z,95138.41
2023-03-29T15:54:56.069Z,95127.09
2023-03-29T15:57:23.591Z,95125.31
2023-03-29T15:59:51.339Z,95118.53
2023-03-29T16:02:23.938Z,95119.69
2023-03-29T16:04:51.912Z,95121.00
2023-03-29T16:07:21.087Z,95128.34
2023-03-29T16:09:48.713Z,95113.16
2023-03-29T16:12:16.545Z,95103.56
2023-03-29T16:14:44.228Z,95104.44
2023-03-29T16:17:14.973Z,95104.88
2023-03-29T16:19:42.586Z,95097.06
2023-03-29T16:22:10.081Z,95097.34
2023-03-29T16:24:37.903Z,95099.47
2023-03-29T16:27:05.272Z,95097.25
2023-03-29T16:29:32.966Z,95101.63
2023-03-29T16:32:00.829Z,95085.56
2023-03-29T16:34:28.502Z,95103.09
2023-03-29T16:36:55.951Z,95101.72
2023-03-29T16:39:23.559Z,95105.88
2023-03-29T16:41:50.986Z,95107.25
2023-03-29T16:44:23.929Z,95107.41
2023-03-29T16:46:57.659Z,95108.28
2023-03-29T16:49:25.429Z,95117.38
2023-03-29T16:51:52.810Z,95115.50
2023-03-29T16:54:20.657Z,95115.72
2023-03-29T16:56:48.438Z,95123.22
2023-03-29T16:59:16.761Z,95126.75
2023-03-29T17:01:44.575Z,95117.50
2023-03-29T17:04:12.316Z,95125.75
2023-03-29T17:06:39.690Z,95117.44
2023-03-29T17:09:07.520Z,95119.50
2023-03-29T17:11:35.052Z,95117.06
2023-03-29T17:14:03.417Z,95125.94
2023-03-29T17:16:30.933Z,95129.88
2023-03-29T17:19:00.697Z,95112.28
2023-03-29T17:21:29.718Z,95106.25
2023-03-29T17:23:57.950Z,95137.22
2023-03-29T17:26:29.922Z,95136.06
2023-03-29T17:28:57.686Z,95140.50
2023-03-29T17:31:24.979Z,95151.59
2023-03-29T17:33:53.015Z,95135.53
2023-03-29T17:36:24.233Z,95156.94
2023-03-29T17:38:52.210Z,95141.56
2023-03-29T17:41:19.567Z,95146.53
2023-03-29T17:43:48.208Z,95149.88
2023-03-29T17:46:17.007Z,95156.69
2023-03-29T17:48:46.379Z,95158.53
2023-03-29T17:51:13.811Z,95150.16
2023-03-29T17:53:41.403Z,95165.78
2023-03-29T17:56:09.491Z,95163.56
2023-03-29T17:58:37.299Z,95169.66
2023-03-29T18:01:12.347Z,95164.69
2023-03-29T18:03:40.091Z,95171.53
2023-03-29T18:06:08.441Z,95174.94
2023-03-29T18:08:44.910Z,95170.63
2023-03-29T18:11:25.423Z,95160.59
2023-03-29T18:13:55.247Z,95190.19
2023-03-29T18:16:23.886Z,95199.84
2023-03-29T18:18:52.391Z,95198.75
2023-03-29T18:21:19.926Z,95201.03
2023-03-29T18:23:48.838Z,95198.81
2023-03-29T18:26:17.479Z,95210.16
2023-03-29T18:28:49.045Z,95181.09
2023-03-29T18:31:20.170Z,95199.94
2023-03-29T18:33:55.047Z,95200.75
2023-03-29T18:36:22.966Z,95190.63
2023-03-29T18:38:58.158Z,95211.28
2023-03-29T18:41:26.157Z,95218.06
2023-03-29T18:43:57.470Z,95210.03
2023-03-29T18:46:25.996Z,95204.28
2023-03-29T18:48:57.744Z,95195.41
2023-03-29T18:51:30.751Z,95173.63
2023-03-29T18:53:59.788Z,95189.28
2023-03-29T18:56:28.147Z,95193.97
2023-03-29T18:58:56.205Z,95188.94
2023-03-29T19:01:24.114Z,95202.19
2023-03-29T19:04:01.156Z,95200.19
2023-03-29T19:06:32.626Z,95201.16
2023-03-29T19:09:05.365Z,95194.59
2023-03-29T19:11:33.509Z,95201.28
2023-03-29T19:14:01.428Z,95200.78
2023-03-29T19:16:29.292Z,95210.03
2023-03-29T19:18:59.756Z,95214.38
2023-03-29T19:21:31.849Z,95217.16
2023-03-29T19:24:01.094Z,95216.81
2023-03-29T19:26:33.513Z,95212.81
2023-03-29T19:29:01.311Z,95214.53
2023-03-29T19:31:28.627Z,95219.19
2023-03-29T19:33:56.333Z,95213.53
2023-03-29T19:36:24.981Z,95207.31
2023-03-29T19:38:54.259Z,95188.81
2023-03-29T19:41:22.245Z,95208.75
2023-03-29T19:43:49.856Z,95204.88
2023-03-29T19:46:17.079Z,95205.31
2023-03-29T19:48:44.846Z,95200.78
2023-03-29T19:51:12.423Z,95192.28
2023-03-29T19:53:41.754Z,95191.97
2023-03-29T19:56:11.141Z,95195.84
2023-03-29T19:58:38.805Z,95182.91
2023-03-29T20:01:06.216Z,95181.94
2023-03-29T20:03:34.373Z,95197.22
2023-03-29T20:06:02.638Z,95189.72
2023-03-29T20:08:30.764Z,95184.44
2023-03-29T20:11:03.904Z,95182.16
2023-03-29T20:16:06.689Z,95179.19
2023-03-29T20:18:34.444Z,95195.03
2023-03-29T20:21:02.097Z,95197.31
2023-03-29T20:23:30.138Z,95192.47
2023-03-29T20:25:58.105Z,95197.94
2023-03-29T20:28:26.086Z,95200.59
2023-03-29T20:30:53.805Z,95195.16
2023-03-29T20:33:21.865Z,95191.88
2023-03-29T20:35:49.614Z,95202.50
2023-03-29T20:38:17.169Z,95211.41
2023-03-29T20:40:45.083Z,95207.19
2023-03-29T20:43:18.529Z,95218.59
2023-03-29T20:45:53.395Z,95215.94
2023-03-29T20:48:30.424Z,95214.50
2023-03-29T20:50:57.887Z,95211.47
2023-03-29T20:53:30.357Z,95215.13
2023-03-29T20:55:57.668Z,95212.88
2023-03-29T20:58:27.421Z,95219.41
2023-03-29T21:00:54.736Z,95200.28
2023-03-29T21:03:22.390Z,95207.00
2023-03-29T21:05:54.475Z,95190.31
2023-03-29T21:08:22.271Z,95192.16
2023-03-29T21:10:49.420Z,95190.72
2023-03-29T21:13:18.236Z,95178.56
2023-03-29T21:15:46.584Z,95187.28
2023-03-29T21:18:14.379Z,95191.78
2023-03-29T21:20:42.198Z,95184.66
2023-03-29T21:23:09.749Z,95188.72
2023-03-29T21:25:39.112Z,95187.94
2023-03-29T21:28:06.767Z,95171.69
2023-03-29T21:30:33.958Z,95175.53
2023-03-29T21:33:01.554Z,95189.97
2023-03-29T21:35:28.905Z,95173.31
2023-03-29T21:37:56.531Z,95183.47
2023-03-29T21:40:23.753Z,95179.44
2023-03-29T21:42:51.342Z,95185.72
2023-03-29T21:45:21.225Z,95180.44
2023-03-29T21:47:48.857Z,95188.34
2023-03-29T21:50:16.628Z,95183.28
2023-03-29T21:52:44.171Z,95166.63
2023-03-29T21:55:12.463Z,95158.69
2023-03-29T21:57:40.174Z,95167.44
2023-03-29T22:00:12.937Z,95183.09
2023-03-29T22:02:40.806Z,95188.94
2023-03-29T22:05:09.770Z,95174.34
2023-03-29T22:07:40.530Z,95174.13
2023-03-29T22:10:12.151Z,95170.28
2023-03-29T22:12:40.091Z,95173.09
2023-03-29T22:15:11.755Z,95182.66
2023-03-29T22:17:41.485Z,95166.81
2023-03-29T22:20:19.552Z,95176.56
2023-03-29T22:22:50.338Z,95175.34
2023-03-29T22:25:19.025Z,95162.34
2023-03-29T22:27:48.981Z,95168.03
2023-03-29T22:30:17.500Z,95168.44
2023-03-29T22:32:45.134Z,95168.06
2023-03-29T22:35:12.655Z,95152.59
2023-03-29T22:37:42.102Z,95154.25
2023-03-29T22:40:11.229Z,95155.84
2023-03-29T22:42:39.049Z,95148.34
2023-03-29T22:45:07.620Z,95151.78
2023-03-29T22:47:35.985Z,95157.88
2023-03-29T22:50:03.364Z,95150.56
2023-03-29T22:52:30.901Z,95159.09
2023-03-29T22:54:58.176Z,95158.91
2023-03-29T22:57:26.520Z,95164.78
2023-03-29T22:59:53.864Z,95143.88
2023-03-29T23:02:22.099Z,95149.75
2023-03-29T23:04:49.520Z,95159.72
2023-03-29T23:07:17.093Z,95153.19
2023-03-29T23:09:45.082Z,95133.28
2023-03-29T23:12:13.140Z,95142.41
2023-03-29T23:14:43.140Z,95147.28
2023-03-29T23:17:11.082Z,95151.13
2023-03-29T23:19:38.365Z,95152.53
2023-03-29T23:22:05.852Z,95141.16
2023-03-29T23:24:33.601Z,95154.75
2023-03-29T23:27:01.440Z,95152.09
2023-03-29T23:29:28.701Z,95142.97
2023-03-29T23:31:57.073Z,95142.91
2023-03-29T23:34:24.698Z,95146.34
2023-03-29T23:36:53.137Z,95137.34
2023-03-29T23:39:20.451Z,95138.78
2023-03-29T23:41:48.414Z,95146.72
2023-03-29T23:44:15.751Z,95135.50
2023-03-29T23:46:43.402Z,95139.53
2023-03-29T23:49:11.673Z,95134.44
2023-03-29T23:52:05.656Z,95137.56
2023-03-29T23:54:35.583Z,95141.00
2023-03-29T23:57:22.395Z,95139.19
